Terminal Aerodrome Forecast
Issued by NWS

Home | Current Version | Previous Version | Text Only | Print | Product List | Glossary On
Versions: 1 2 3 4 5 6 7 8 9 10 11 12 13 14 15 16
000
FTUS42 KMLB 041608 AAA
TAFLEE
TAF AMD
KLEE 041608Z 0416/0512 24007KT P6SM VCTS SCT025CB BKN250
      TEMPO 0416/0418 3SM SHRA BKN025
     FM042000 27008KT P6SM SCT030 SCT100 BKN250
     FM050000 25005KT P6SM SCT040 BKN250
     FM050600 19003KT P6SM SCT250=

USA.gov is the U.S. government's official web portal to all federal, state and local government web resources and services.